Time;durP1;ratioP1;P1;durP2;ratioP2;P2;SDS_P1;SDS_P2;PMS_P1;PMS_P2;Temp;Humidity;BMP_temperature;BMP_pressure;BME280_temperature;BME280_humidity;BME280_pressure;Samples;Min_cycle;Max_cycle;Signal;HPM_P1;HPM_P2
2021/06/28 00:02:07;;;;;;;20.63;12.93;;;;;;;-145.50;100.00;65435.88;4893777;29;20154;-48
2021/06/28 00:04:34;;;;;;;20.25;12.80;;;;;;;-145.50;100.00;65435.88;4879763;29;20056;-48
2021/06/28 00:07:01;;;;;;;20.67;12.63;;;;;;;-145.50;100.00;65435.88;4880481;29;20893;-50
2021/06/28 00:09:27;;;;;;;19.98;13.35;;;;;;;-145.50;100.00;65435.88;4880457;29;20143;-46
2021/06/28 00:11:54;;;;;;;21.70;11.75;;;;;;;-145.50;100.00;65435.88;4876894;29;20127;-47
2021/06/28 00:14:21;;;;;;;19.33;12.35;;;;;;;-145.50;100.00;65435.88;4884566;29;20053;-47
2021/06/28 00:16:47;;;;;;;20.65;12.65;;;;;;;-145.50;100.00;65435.88;4878695;29;20160;-47
2021/06/28 00:19:14;;;;;;;21.73;13.40;;;;;;;-145.50;100.00;65435.88;4884747;29;20151;-47
2021/06/28 00:21:40;;;;;;;24.70;13.70;;;;;;;-145.50;100.00;65435.88;4875280;29;20195;-47
2021/06/28 00:24:07;;;;;;;20.83;12.88;;;;;;;-145.50;100.00;65435.88;4886125;29;20143;-47
2021/06/28 00:26:35;;;;;;;24.17;12.75;;;;;;;-145.50;100.00;65435.88;4882413;29;20060;-46
2021/06/28 00:29:01;;;;;;;25.17;13.77;;;;;;;-145.50;100.00;65435.88;4883793;29;20066;-47
2021/06/28 00:31:28;;;;;;;18.77;13.02;;;;;;;-145.50;100.00;65435.88;4868355;29;20319;-47
2021/06/28 00:33:56;;;;;;;21.38;12.73;;;;;;;-145.50;100.00;65435.88;4878699;29;20052;-48
2021/06/28 00:36:22;;;;;;;21.08;13.48;;;;;;;-145.50;100.00;65435.88;4877686;29;20245;-47
2021/06/28 00:38:49;;;;;;;21.60;13.68;;;;;;;-145.50;100.00;65435.88;4879813;29;20147;-47
2021/06/28 00:41:15;;;;;;;20.60;13.98;;;;;;;-145.50;100.00;65435.88;4886220;29;20139;-47
2021/06/28 00:43:42;;;;;;;21.05;13.48;;;;;;;-145.50;100.00;65435.88;4878987;29;20152;-47
2021/06/28 00:46:09;;;;;;;22.95;14.40;;;;;;;-145.50;100.00;65435.88;4886433;29;20139;-48
2021/06/28 00:48:36;;;;;;;23.13;14.23;;;;;;;-145.50;100.00;65435.88;4884628;29;20061;-47
2021/06/28 00:51:02;;;;;;;23.25;13.77;;;;;;;-145.50;100.00;65435.88;4876236;29;20147;-48
2021/06/28 00:53:30;;;;;;;24.02;14.45;;;;;;;-145.50;100.00;65435.88;4887790;29;20155;-47
2021/06/28 00:56:09;;;;;;;19.83;13.87;;;;;;;-145.50;100.00;65435.88;4877739;29;20792;-49
2021/06/28 00:58:38;;;;;;;22.40;15.02;;;;;;;-145.50;100.00;65435.88;4887851;29;20075;-47
2021/06/28 01:01:05;;;;;;;22.20;13.77;;;;;;;-145.50;100.00;65435.88;4863255;29;20139;-47
2021/06/28 01:03:33;;;;;;;20.63;14.52;;;;;;;-145.50;100.00;65435.88;4883324;29;20155;-46
2021/06/28 01:06:00;;;;;;;23.55;14.63;;;;;;;-145.50;100.00;65435.88;4892399;29;20143;-47
2021/06/28 01:08:27;;;;;;;26.90;16.00;;;;;;;-145.50;100.00;65435.88;4893074;29;20135;-48
2021/06/28 01:10:54;;;;;;;29.80;15.60;;;;;;;-145.50;100.00;65435.88;4894828;29;20087;-47
2021/06/28 01:13:25;;;;;;;33.28;18.13;;;;;;;-145.50;100.00;65435.88;4881969;29;20057;-48
2021/06/28 01:15:54;;;;;;;32.75;20.67;;;;;;;-145.50;100.00;65435.88;4888493;29;20151;-47
2021/06/28 01:18:21;;;;;;;25.95;16.98;;;;;;;-145.50;100.00;65435.88;4863358;29;20065;-47
2021/06/28 01:20:47;;;;;;;28.75;16.27;;;;;;;-145.50;100.00;65435.88;4893069;29;20091;-48
2021/06/28 01:23:23;;;;;;;26.58;16.83;;;;;;;-145.50;100.00;65435.88;4866906;29;20570;-47
2021/06/28 01:25:55;;;;;;;28.90;17.17;;;;;;;-145.50;100.00;65435.88;4888138;29;20156;-47
2021/06/28 01:28:23;;;;;;;29.27;17.38;;;;;;;-145.50;100.00;65435.88;4882162;29;20156;-47
2021/06/28 01:30:50;;;;;;;31.33;18.15;;;;;;;-145.50;100.00;65435.88;4893484;29;20060;-47
2021/06/28 01:33:17;;;;;;;25.20;16.45;;;;;;;-145.50;100.00;65435.88;4887542;29;20056;-47
2021/06/28 01:35:45;;;;;;;26.90;17.47;;;;;;;-145.50;100.00;65435.88;4882842;29;20151;-47
2021/06/28 01:38:12;;;;;;;28.15;16.40;;;;;;;-145.50;100.00;65435.88;4887863;29;20307;-48
2021/06/28 01:40:40;;;;;;;32.35;18.45;;;;;;;-145.50;100.00;65435.88;4882627;29;20149;-47
2021/06/28 01:43:07;;;;;;;29.33;17.20;;;;;;;-145.50;100.00;65435.88;4888473;29;20420;-48
2021/06/28 01:45:34;;;;;;;26.42;17.65;;;;;;;-145.50;100.00;65435.88;4881599;29;20227;-47
2021/06/28 01:48:02;;;;;;;24.88;16.35;;;;;;;-145.50;100.00;65435.88;4878603;29;20088;-47
2021/06/28 01:50:31;;;;;;;;;;;;;;;-145.50;100.00;65435.88;4883117;29;20061;-48
2021/06/28 01:52:58;;;;;;;27.17;17.30;;;;;;;-145.50;100.00;65435.88;4886864;29;20054;-48
2021/06/28 01:55:25;;;;;;;28.80;18.02;;;;;;;-145.50;100.00;65435.88;4884288;29;20087;-47
2021/06/28 01:57:57;;;;;;;31.73;18.17;;;;;;;-145.50;100.00;65435.88;4875172;29;20135;-49
2021/06/28 02:00:28;;;;;;;28.83;18.48;;;;;;;-145.50;100.00;65435.88;4879538;29;20062;-49
2021/06/28 02:03:01;;;;;;;30.80;18.27;;;;;;;-145.50;100.00;65435.88;4879684;29;20138;-47
2021/06/28 02:05:29;;;;;;;29.42;17.50;;;;;;;-145.50;100.00;65435.88;4888425;29;20069;-48
2021/06/28 02:07:56;;;;;;;33.13;19.02;;;;;;;-145.50;100.00;65435.88;4883477;29;20589;-47
2021/06/28 02:10:23;;;;;;;28.00;18.08;;;;;;;-145.50;100.00;65435.88;4882705;29;20080;-47
2021/06/28 02:12:50;;;;;;;30.92;18.58;;;;;;;-145.50;100.00;65435.88;4877200;29;20497;-47
2021/06/28 02:15:25;;;;;;;31.02;18.10;;;;;;;-145.50;100.00;65435.88;4886680;29;20062;-48
2021/06/28 02:17:51;;;;;;;32.63;17.50;;;;;;;-145.50;100.00;65435.88;4885177;29;20560;-47
2021/06/28 02:20:19;;;;;;;28.77;18.13;;;;;;;-145.50;100.00;65435.88;4886209;29;20071;-47
2021/06/28 02:22:51;;;;;;;31.77;18.20;;;;;;;-145.50;100.00;65435.88;4891213;29;20061;-48
2021/06/28 02:25:18;;;;;;;31.40;18.45;;;;;;;-145.50;100.00;65435.88;4875178;29;20187;-47
2021/06/28 02:28:06;;;;;;;36.60;20.20;;;;;;;-145.50;100.00;65435.88;4886250;29;20148;-47
2021/06/28 02:30:32;;;;;;;28.85;18.83;;;;;;;-145.50;100.00;65435.88;4882145;29;20076;-47
2021/06/28 02:32:59;;;;;;;31.63;18.08;;;;;;;-145.50;100.00;65435.88;4881978;29;20166;-48
2021/06/28 02:35:25;;;;;;;26.83;17.20;;;;;;;-145.50;100.00;65435.88;4874285;29;20177;-47
2021/06/28 02:37:52;;;;;;;29.65;18.33;;;;;;;-145.50;100.00;65435.88;4877841;29;20143;-47
2021/06/28 02:40:18;;;;;;;31.73;17.60;;;;;;;-145.50;100.00;65435.88;4885954;29;20143;-48
2021/06/28 02:42:45;;;;;;;33.10;18.95;;;;;;;-145.50;100.00;65435.88;4881130;29;20147;-47
2021/06/28 02:45:11;;;;;;;31.15;19.50;;;;;;;-145.50;100.00;65435.88;4887091;29;20143;-48
2021/06/28 02:47:38;;;;;;;28.02;18.45;;;;;;;-145.50;100.00;65435.88;4881097;29;20584;-47
2021/06/28 02:50:11;;;;;;;31.52;18.70;;;;;;;-145.50;100.00;65435.88;4886584;29;20564;-49
2021/06/28 02:52:38;;;;;;;27.85;18.15;;;;;;;-145.50;100.00;65435.88;4875292;29;20119;-47
2021/06/28 02:55:06;;;;;;;32.40;19.83;;;;;;;-145.50;100.00;65435.88;4886611;29;20147;-47
2021/06/28 02:57:33;;;;;;;28.95;18.27;;;;;;;-145.50;100.00;65435.88;4894665;29;20091;-48
2021/06/28 03:00:00;;;;;;;27.60;18.50;;;;;;;-145.50;100.00;65435.88;4881361;29;20180;-48
2021/06/28 03:02:27;;;;;;;34.33;19.88;;;;;;;-145.50;100.00;65435.88;4884822;29;20112;-47
2021/06/28 03:04:54;;;;;;;29.02;18.33;;;;;;;-145.50;100.00;65435.88;4877148;29;20147;-49
2021/06/28 03:07:20;;;;;;;30.70;19.42;;;;;;;-145.50;100.00;65435.88;4866430;29;20160;-48
2021/06/28 03:09:46;;;;;;;28.55;18.38;;;;;;;-145.50;100.00;65435.88;4873622;29;20580;-48
2021/06/28 03:12:13;;;;;;;31.80;18.58;;;;;;;-145.50;100.00;65435.88;4883342;29;20084;-46
2021/06/28 03:14:40;;;;;;;30.73;18.77;;;;;;;-145.50;100.00;65435.88;4891467;29;20212;-47
2021/06/28 03:17:07;;;;;;;25.25;15.75;;;;;;;-145.50;100.00;65435.88;4864779;29;20137;-47
2021/06/28 03:19:33;;;;;;;28.58;17.75;;;;;;;-145.50;100.00;65435.88;4869807;29;20148;-48
2021/06/28 03:22:00;;;;;;;34.03;18.25;;;;;;;-145.50;100.00;65435.88;4871091;29;20063;-48
2021/06/28 03:24:26;;;;;;;30.27;17.60;;;;;;;-145.50;100.00;65435.88;4871981;29;20049;-48
2021/06/28 03:26:52;;;;;;;30.23;17.33;;;;;;;-145.50;100.00;65435.88;4872970;29;20477;-48
2021/06/28 03:29:19;;;;;;;29.45;18.45;;;;;;;-145.50;100.00;65435.88;4876523;29;20155;-47
2021/06/28 03:31:45;;;;;;;31.15;18.70;;;;;;;-145.50;100.00;65435.88;4868805;29;20147;-47
2021/06/28 03:34:12;;;;;;;33.83;20.52;;;;;;;-145.50;100.00;65435.88;4867389;29;20057;-47
2021/06/28 03:36:38;;;;;;;31.27;18.25;;;;;;;-145.50;100.00;65435.88;4877763;29;20084;-48
2021/06/28 03:39:25;;;;;;;30.35;18.48;;;;;;;-145.50;100.00;65435.88;4874088;29;20151;-48
2021/06/28 03:41:52;;;;;;;28.80;18.35;;;;;;;-145.50;100.00;65435.88;4889948;29;20163;-49
2021/06/28 03:44:19;;;;;;;26.23;16.77;;;;;;;-145.50;100.00;65435.88;4889967;29;20967;-47
2021/06/28 03:46:45;;;;;;;30.35;17.20;;;;;;;-145.50;100.00;65435.88;4870079;29;20151;-48
2021/06/28 03:49:11;;;;;;;25.00;16.50;;;;;;;-145.50;100.00;65435.88;4880477;29;20064;-47
2021/06/28 03:51:38;;;;;;;26.75;16.08;;;;;;;-145.50;100.00;65435.88;4889251;29;20553;-47
2021/06/28 03:54:05;;;;;;;25.02;16.45;;;;;;;-145.50;100.00;65435.88;4888684;29;20581;-49
2021/06/28 03:56:31;;;;;;;27.40;16.42;;;;;;;-145.50;100.00;65435.88;4886667;29;20143;-49
2021/06/28 03:58:58;;;;;;;26.77;17.33;;;;;;;-145.50;100.00;65435.88;4890208;29;20152;-47
2021/06/28 04:01:24;;;;;;;29.25;18.70;;;;;;;-145.50;100.00;65435.88;4875235;29;20151;-48
2021/06/28 04:03:53;;;;;;;31.48;18.90;;;;;;;-145.50;100.00;65435.88;4891277;29;20139;-48
2021/06/28 04:06:20;;;;;;;29.73;18.13;;;;;;;-145.50;100.00;65435.88;4883889;29;20148;-47
2021/06/28 04:08:46;;;;;;;29.17;18.85;;;;;;;-145.50;100.00;65435.88;4888141;29;20080;-48
2021/06/28 04:11:13;;;;;;;31.55;18.77;;;;;;;-145.50;100.00;65435.88;4879056;29;20074;-47
2021/06/28 04:13:40;;;;;;;35.08;19.45;;;;;;;-145.50;100.00;65435.88;4882654;29;20163;-47
2021/06/28 04:16:06;;;;;;;34.70;19.15;;;;;;;-145.50;100.00;65435.88;4883886;29;20135;-47
2021/06/28 04:18:33;;;;;;;30.15;19.33;;;;;;;-145.50;100.00;65435.88;4887303;29;20090;-47
2021/06/28 04:20:59;;;;;;;30.20;19.27;;;;;;;-145.50;100.00;65435.88;4885854;29;20136;-47
2021/06/28 04:23:26;;;;;;;32.80;18.50;;;;;;;-145.50;100.00;65435.88;4881919;29;20151;-47
2021/06/28 04:25:52;;;;;;;31.15;18.20;;;;;;;-145.50;100.00;65435.88;4889656;29;20072;-47
2021/06/28 04:28:19;;;;;;;31.58;18.73;;;;;;;-145.50;100.00;65435.88;4876223;29;20915;-48
2021/06/28 04:30:46;;;;;;;30.60;18.38;;;;;;;-145.50;100.00;65435.88;4890192;29;20140;-47
2021/06/28 04:33:12;;;;;;;29.15;18.63;;;;;;;-145.50;100.00;65435.88;4879401;29;20513;-47
2021/06/28 04:35:39;;;;;;;30.77;19.88;;;;;;;-145.50;100.00;65435.88;4879449;29;20096;-49
2021/06/28 04:38:06;;;;;;;36.92;20.02;;;;;;;-145.50;100.00;65435.88;4880280;29;20605;-47
2021/06/28 04:40:34;;;;;;;35.50;20.92;;;;;;;-145.50;100.00;65435.88;4881182;29;20138;-48
2021/06/28 04:43:00;;;;;;;33.83;20.70;;;;;;;-145.50;100.00;65435.88;4893701;29;20143;-47
2021/06/28 04:45:28;;;;;;;40.35;21.52;;;;;;;-145.50;100.00;65435.88;4880188;29;20131;-48
2021/06/28 04:47:56;;;;;;;38.28;23.33;;;;;;;-145.50;100.00;65435.88;4888619;29;20140;-49
2021/06/28 04:50:23;;;;;;;38.70;21.83;;;;;;;-145.50;100.00;65435.88;4882774;29;20579;-48
2021/06/28 04:52:52;;;;;;;34.10;21.05;;;;;;;-145.50;100.00;65435.88;4876045;29;20063;-47
2021/06/28 04:55:19;;;;;;;40.58;22.58;;;;;;;-145.50;100.00;65435.88;4872314;29;20139;-48
2021/06/28 04:57:46;;;;;;;38.75;21.80;;;;;;;-145.50;100.00;65435.88;4872435;29;20147;-48
2021/06/28 05:00:16;;;;;;;39.50;21.58;;;;;;;-145.50;100.00;65435.88;4880577;29;20084;-48
2021/06/28 05:02:43;;;;;;;39.20;22.33;;;;;;;-145.50;100.00;65435.88;4870126;29;20143;-48
2021/06/28 05:05:12;;;;;;;36.63;21.87;;;;;;;-145.50;100.00;65435.88;4874144;29;20079;-47
2021/06/28 05:07:38;;;;;;;42.50;23.67;;;;;;;-145.50;100.00;65435.88;4866718;29;20288;-47
2021/06/28 05:10:06;;;;;;;40.85;23.10;;;;;;;-145.50;100.00;65435.88;4869760;29;20049;-48
2021/06/28 05:12:33;;;;;;;43.08;23.88;;;;;;;-145.50;100.00;65435.88;4876822;29;20140;-48
2021/06/28 05:14:59;;;;;;;41.00;23.15;;;;;;;-145.50;100.00;65435.88;4882886;29;20166;-47
2021/06/28 05:17:26;;;;;;;35.78;22.13;;;;;;;-145.50;100.00;65435.88;4893401;29;20142;-48
2021/06/28 05:19:52;;;;;;;38.95;22.05;;;;;;;-145.50;100.00;65435.88;4878047;29;20058;-48
2021/06/28 05:22:19;;;;;;;43.25;24.92;;;;;;;-145.50;100.00;65435.88;4871342;29;20080;-47
2021/06/28 05:24:45;;;;;;;40.42;24.35;;;;;;;-145.50;100.00;65435.88;4865648;29;20160;-47
2021/06/28 05:27:12;;;;;;;37.35;24.25;;;;;;;-145.50;100.00;65435.88;4875408;29;20143;-47
2021/06/28 05:29:38;;;;;;;43.88;24.40;;;;;;;-145.50;100.00;65435.88;4884013;29;20137;-47
2021/06/28 05:32:05;;;;;;;42.80;25.58;;;;;;;-145.50;100.00;65435.88;4875769;29;20084;-48
2021/06/28 05:34:32;;;;;;;44.25;26.17;;;;;;;-145.50;100.00;65435.88;4881832;29;20490;-49
2021/06/28 05:36:58;;;;;;;43.58;26.48;;;;;;;-145.50;100.00;65435.88;4877734;29;20778;-48
2021/06/28 05:39:25;;;;;;;42.85;25.75;;;;;;;-145.50;100.00;65435.88;4874998;29;20135;-48
2021/06/28 05:41:51;;;;;;;43.45;26.50;;;;;;;-145.50;100.00;65435.88;4881129;29;20063;-48
2021/06/28 05:44:18;;;;;;;42.83;27.63;;;;;;;-145.50;100.00;65435.88;4870535;29;20143;-48
2021/06/28 05:46:44;;;;;;;43.47;25.60;;;;;;;-145.50;100.00;65435.88;4883584;29;20573;-48
2021/06/28 05:49:10;;;;;;;53.20;28.63;;;;;;;-145.50;100.00;65435.88;4877450;29;20580;-48
2021/06/28 05:51:37;;;;;;;43.97;26.90;;;;;;;-145.50;100.00;65435.88;4882772;29;20139;-50
2021/06/28 05:54:04;;;;;;;43.92;27.08;;;;;;;-145.50;100.00;65435.88;4878364;29;20139;-49
2021/06/28 05:56:30;;;;;;;53.55;31.38;;;;;;;-145.50;100.00;65435.88;4871298;29;20095;-48
2021/06/28 05:58:57;;;;;;;50.60;32.50;;;;;;;-145.50;100.00;65435.88;4881638;29;20140;-47
2021/06/28 06:01:23;;;;;;;68.57;37.83;;;;;;;-145.50;100.00;65435.88;4881442;29;20155;-48
2021/06/28 06:03:50;;;;;;;49.10;30.08;;;;;;;-145.50;100.00;65435.88;4873571;29;20252;-47
2021/06/28 06:06:17;;;;;;;50.20;28.60;;;;;;;-145.50;100.00;65435.88;4884539;29;20049;-48
2021/06/28 06:08:43;;;;;;;56.33;29.90;;;;;;;-145.50;100.00;65435.88;4887653;29;20583;-48
2021/06/28 06:11:10;;;;;;;52.40;30.52;;;;;;;-145.50;100.00;65435.88;4871190;29;20144;-48
2021/06/28 06:13:36;;;;;;;51.85;29.02;;;;;;;-145.50;100.00;65435.88;4884024;29;20132;-50
2021/06/28 06:16:03;;;;;;;47.72;28.65;;;;;;;-145.50;100.00;65435.88;4881540;29;20767;-49
2021/06/28 06:18:30;;;;;;;57.28;31.58;;;;;;;-145.50;100.00;65435.88;4881350;29;20072;-48
2021/06/28 06:20:56;;;;;;;57.72;30.73;;;;;;;-145.50;100.00;65435.88;4879101;29;20196;-48
2021/06/28 06:23:23;;;;;;;54.38;28.83;;;;;;;-145.50;100.00;65435.88;4886062;29;20159;-47
2021/06/28 06:25:49;;;;;;;52.13;27.95;;;;;;;-145.50;100.00;65435.88;4882751;29;20163;-50
2021/06/28 06:28:16;;;;;;;53.60;29.02;;;;;;;-145.50;100.00;65435.88;4880871;29;20135;-49
2021/06/28 06:30:43;;;;;;;47.45;28.33;;;;;;;-145.50;100.00;65435.88;4881668;29;20056;-49
2021/06/28 06:33:10;;;;;;;48.33;28.02;;;;;;;-145.50;100.00;65435.88;4871757;29;20083;-48
2021/06/28 06:35:37;;;;;;;46.28;27.73;;;;;;;-145.50;100.00;65435.88;4883690;29;20636;-48
2021/06/28 06:38:04;;;;;;;41.75;26.58;;;;;;;-145.50;100.00;65435.88;4883985;29;20573;-49
2021/06/28 06:40:30;;;;;;;44.83;27.77;;;;;;;-145.50;100.00;65435.88;4886845;29;20517;-49
2021/06/28 06:42:58;;;;;;;50.85;30.42;;;;;;;-145.50;100.00;65435.88;4877067;29;20469;-48
2021/06/28 06:45:25;;;;;;;46.65;29.08;;;;;;;-145.50;100.00;65435.88;4886433;29;20466;-48
2021/06/28 06:47:51;;;;;;;46.83;29.55;;;;;;;-145.50;100.00;65435.88;4882590;29;20092;-49
2021/06/28 06:50:19;;;;;;;52.50;28.98;;;;;;;-145.50;100.00;65435.88;4882010;29;20139;-49
2021/06/28 06:52:46;;;;;;;50.45;31.98;;;;;;;-145.50;100.00;65435.88;4883038;29;20136;-48
2021/06/28 06:55:14;;;;;;;60.45;32.35;;;;;;;-145.50;100.00;65435.88;4883538;29;20087;-48
2021/06/28 06:57:42;;;;;;;51.88;29.95;;;;;;;-145.50;100.00;65435.88;4888846;29;20577;-49
2021/06/28 07:00:15;;;;;;;52.67;32.25;;;;;;;-145.50;100.00;65435.88;4880028;29;20519;-48
2021/06/28 07:02:42;;;;;;;51.50;31.90;;;;;;;-145.50;100.00;65435.88;4883416;29;20087;-48
2021/06/28 07:05:11;;;;;;;59.07;33.67;;;;;;;-145.50;100.00;65435.88;4882860;29;20103;-48
2021/06/28 07:07:40;;;;;;;55.30;32.40;;;;;;;-145.50;100.00;65435.88;4888330;29;20095;-48
2021/06/28 07:10:12;;;;;;;57.22;33.72;;;;;;;-145.50;100.00;65435.88;4882127;29;20485;-48
2021/06/28 07:12:40;;;;;;;58.22;33.05;;;;;;;-145.50;100.00;65435.88;4881830;29;20398;-47
2021/06/28 07:15:09;;;;;;;58.63;33.38;;;;;;;-145.50;100.00;65435.88;4883156;29;20129;-46
2021/06/28 07:17:35;;;;;;;54.05;34.03;;;;;;;-145.50;100.00;65435.88;4883613;29;20152;-50
2021/06/28 07:20:25;;;;;;;60.42;35.13;;;;;;;-145.50;100.00;65435.88;4884888;29;20560;-46
2021/06/28 07:22:53;;;;;;;58.55;33.38;;;;;;;-145.50;100.00;65435.88;4871944;29;20492;-49
2021/06/28 07:25:22;;;;;;;57.92;33.63;;;;;;;-145.50;100.00;65435.88;4880556;29;20084;-49
2021/06/28 07:27:49;;;;;;;60.75;36.45;;;;;;;-145.50;100.00;65435.88;4875724;29;20190;-47
2021/06/28 07:30:19;;;;;;;54.78;30.92;;;;;;;-145.50;100.00;65435.88;4880723;29;20106;-49
2021/06/28 07:32:46;;;;;;;57.03;34.95;;;;;;;-145.50;100.00;65435.88;4871622;29;20060;-47
2021/06/28 07:35:13;;;;;;;58.58;36.30;;;;;;;-145.50;100.00;65435.88;4880833;29;20733;-49
2021/06/28 07:37:40;;;;;;;61.95;35.63;;;;;;;-145.50;100.00;65435.88;4888580;29;20151;-48
2021/06/28 07:40:10;;;;;;;53.58;32.00;;;;;;;-145.50;100.00;65435.88;4881585;29;20143;-48
2021/06/28 07:42:36;;;;;;;56.38;34.13;;;;;;;-145.50;100.00;65435.88;4881678;29;20147;-47
2021/06/28 07:45:04;;;;;;;57.38;33.55;;;;;;;-145.50;100.00;65435.88;4876324;29;20084;-48
2021/06/28 07:47:31;;;;;;;58.05;35.13;;;;;;;-145.50;100.00;65435.88;4885898;29;20148;-49
2021/06/28 07:50:00;;;;;;;56.58;34.75;;;;;;;-145.50;100.00;65435.88;4879454;29;20089;-47
2021/06/28 07:52:27;;;;;;;60.20;36.38;;;;;;;-145.50;100.00;65435.88;4885575;29;20805;-48
2021/06/28 07:54:54;;;;;;;57.10;34.20;;;;;;;-145.50;100.00;65435.88;4881554;29;20157;-49
2021/06/28 07:57:20;;;;;;;55.50;30.70;;;;;;;-145.50;100.00;65435.88;4869539;29;20053;-48
2021/06/28 07:59:47;;;;;;;52.63;32.17;;;;;;;-145.50;100.00;65435.88;4885171;29;20147;-47
2021/06/28 08:02:13;;;;;;;51.70;31.58;;;;;;;-145.50;100.00;65435.88;4880533;29;20135;-48
2021/06/28 08:05:02;;;;;;;55.33;34.00;;;;;;;-145.50;100.00;65435.88;4887543;29;20096;-49
2021/06/28 08:07:29;;;;;;;57.85;35.40;;;;;;;-145.50;100.00;65435.88;4881967;29;20152;-50
2021/06/28 08:10:05;;;;;;;58.58;33.78;;;;;;;-145.50;100.00;65435.88;4868344;29;20056;-49
2021/06/28 08:12:32;;;;;;;53.33;33.50;;;;;;;-145.50;100.00;65435.88;4879617;29;20057;-49
2021/06/28 08:15:20;;;;;;;60.83;34.60;;;;;;;-145.50;100.00;65435.88;4890433;29;20671;-48
2021/06/28 08:17:47;;;;;;;57.15;34.40;;;;;;;-145.50;100.00;65435.88;4890668;29;20243;-49
2021/06/28 08:20:15;;;;;;;58.47;35.67;;;;;;;-145.50;100.00;65435.88;4884979;29;20139;-52
2021/06/28 08:22:43;;;;;;;59.78;35.22;;;;;;;-145.50;100.00;65435.88;4889564;29;20067;-49
2021/06/28 08:25:11;;;;;;;58.17;36.15;;;;;;;-145.50;100.00;65435.88;4884810;29;20741;-49
2021/06/28 08:27:37;;;;;;;53.88;33.35;;;;;;;-145.50;100.00;65435.88;4891491;29;20139;-49
2021/06/28 08:30:07;;;;;;;56.92;35.22;;;;;;;-145.50;100.00;65435.88;4883967;29;20469;-52
2021/06/28 08:32:39;;;;;;;60.72;35.42;;;;;;;-145.50;100.00;65435.88;4886578;29;20159;-50
2021/06/28 08:35:08;;;;;;;54.30;35.25;;;;;;;-145.50;100.00;65435.88;4879784;29;20079;-49
2021/06/28 08:37:35;;;;;;;58.67;36.83;;;;;;;-145.50;100.00;65435.88;4890915;29;20564;-50
2021/06/28 08:40:19;;;;;;;55.05;33.00;;;;;;;-145.50;100.00;65435.88;4887941;29;20080;-49
2021/06/28 08:42:46;;;;;;;56.78;35.95;;;;;;;-145.50;100.00;65435.88;4884694;29;20143;-50
2021/06/28 08:45:13;;;;;;;52.75;31.58;;;;;;;-145.50;100.00;65435.88;4891141;29;20967;-48
2021/06/28 08:47:41;;;;;;;48.10;31.45;;;;;;;-145.50;100.00;65435.88;4880407;29;20890;-51
2021/06/28 08:50:09;;;;;;;49.95;31.65;;;;;;;-145.50;100.00;65435.88;4888485;29;20048;-51
2021/06/28 08:52:41;;;;;;;;;;;;;;;-145.50;100.00;65435.88;4883416;29;20505;-50
2021/06/28 08:55:09;;;;;;;43.85;28.73;;;;;;;-145.50;100.00;65435.88;4885791;29;19977;-49
2021/06/28 08:57:36;;;;;;;;;;;;;;;-145.50;100.00;65435.88;4877526;29;20778;-52
2021/06/28 09:00:08;;;;;;;50.60;30.00;;;;;;;-145.50;100.00;65435.88;4877763;29;20831;-49
2021/06/28 09:02:35;;;;;;;51.78;32.15;;;;;;;-145.50;100.00;65435.88;4884716;29;20508;-49
2021/06/28 09:05:26;;;;;;;54.17;31.23;;;;;;;-145.50;100.00;65435.88;4878123;29;20853;-49
2021/06/28 09:08:12;;;;;;;45.80;30.67;;;;;;;-145.50;100.00;65435.88;4889488;29;20088;-49
2021/06/28 09:10:41;;;;;;;49.83;30.88;;;;;;;-145.50;100.00;65435.88;4873465;29;20088;-50
2021/06/28 09:13:09;;;;;;;49.30;28.63;;;;;;;-145.50;100.00;65435.88;4886291;29;20421;-48
2021/06/28 09:15:52;;;;;;;48.38;29.00;;;;;;;-145.50;100.00;65435.88;4876211;29;20060;-50
2021/06/28 09:18:19;;;;;;;44.78;29.88;;;;;;;-145.50;100.00;65435.88;4885613;29;20521;-51
2021/06/28 09:20:46;;;;;;;42.60;28.17;;;;;;;-145.50;100.00;65435.88;4881417;29;20084;-50
2021/06/28 09:23:38;;;;;;;49.45;31.48;;;;;;;-145.50;100.00;65435.88;4892220;29;20095;-50
2021/06/28 09:26:33;;;;;;;54.20;33.88;;;;;;;-145.50;100.00;65435.88;4869104;29;20096;-50
2021/06/28 09:29:33;;;;;;;52.20;31.73;;;;;;;-145.50;100.00;65435.88;4881314;29;20159;-49
2021/06/28 09:32:27;;;;;;;47.75;28.60;;;;;;;-145.50;100.00;65435.88;4883537;29;20163;-51
2021/06/28 09:35:36;;;;;;;45.40;29.58;;;;;;;-145.50;100.00;65435.88;4881377;29;20147;-50
2021/06/28 09:38:29;;;;;;;48.28;29.60;;;;;;;-145.50;100.00;65435.88;4873842;29;20088;-50
2021/06/28 09:41:25;;;;;;;45.25;27.30;;;;;;;-145.50;100.00;65435.88;4884536;29;20056;-49
2021/06/28 09:44:14;;;;;;;34.53;22.05;;;;;;;-145.50;100.00;65435.88;4881479;29;20144;-49
2021/06/28 09:47:07;;;;;;;34.08;22.27;;;;;;;-145.50;100.00;65435.88;4890046;29;20067;-51
2021/06/28 09:50:06;;;;;;;45.05;29.20;;;;;;;-145.50;100.00;65435.88;4879803;29;20103;-50
2021/06/28 09:52:54;;;;;;;50.75;34.03;;;;;;;-145.50;100.00;65435.88;4889112;29;20157;-50
2021/06/28 09:55:49;;;;;;;50.50;34.03;;;;;;;-145.50;100.00;65435.88;4878614;29;20052;-50
2021/06/28 09:58:36;;;;;;;54.85;33.83;;;;;;;-145.50;100.00;65435.88;4887335;29;20155;-49
2021/06/28 10:01:26;;;;;;;54.72;31.27;;;;;;;-145.50;100.00;65435.88;4882287;29;20083;-52
2021/06/28 10:07:39;;;;;;;48.88;30.20;;;;;;;-145.50;100.00;65435.88;4845184;29;20446;-49
2021/06/28 10:10:29;;;;;;;46.03;26.75;;;;;;;-145.50;100.00;65435.88;4881340;29;20084;-50
2021/06/28 10:13:20;;;;;;;41.17;26.60;;;;;;;-145.50;100.00;65435.88;4886232;29;20061;-49
2021/06/28 10:16:08;;;;;;;31.90;22.83;;;;;;;-145.50;100.00;65435.88;4889933;29;20052;-48
2021/06/28 10:18:57;;;;;;;34.33;22.75;;;;;;;-145.50;100.00;65435.88;4884939;29;20139;-49
2021/06/28 10:21:44;;;;;;;38.63;25.52;;;;;;;-145.50;100.00;65435.88;4887298;29;20151;-48
2021/06/28 10:24:31;;;;;;;39.45;25.48;;;;;;;-145.50;100.00;65435.88;4881150;29;20087;-49
2021/06/28 10:27:19;;;;;;;43.38;27.10;;;;;;;-145.50;100.00;65435.88;4889179;29;20143;-50
2021/06/28 10:30:08;;;;;;;36.30;24.80;;;;;;;-145.50;100.00;65435.88;4886459;29;20143;-48
2021/06/28 10:32:58;;;;;;;42.95;25.65;;;;;;;-145.50;100.00;65435.88;4880629;29;20551;-48
2021/06/28 10:35:58;;;;;;;37.90;24.15;;;;;;;-145.50;100.00;65435.88;4881436;29;20059;-49
2021/06/28 10:38:52;;;;;;;38.55;24.35;;;;;;;-145.50;100.00;65435.88;4886444;29;20151;-49
2021/06/28 10:41:55;;;;;;;38.38;23.73;;;;;;;-145.50;100.00;65435.88;4888855;29;20135;-49
2021/06/28 10:44:47;;;;;;;38.70;23.45;;;;;;;-145.50;100.00;65435.88;4881763;29;20056;-48
2021/06/28 10:47:35;;;;;;;35.08;22.55;;;;;;;-145.50;100.00;65435.88;4888250;29;20147;-48
2021/06/28 10:50:23;;;;;;;32.00;21.45;;;;;;;-145.50;100.00;65435.88;4878237;29;20139;-51
2021/06/28 10:53:10;;;;;;;33.00;21.15;;;;;;;-145.50;100.00;65435.88;4887328;29;20152;-51
2021/06/28 10:56:25;;;;;;;31.42;20.83;;;;;;;-145.50;100.00;65435.88;4883287;29;20151;-49
2021/06/28 10:59:15;;;;;;;33.25;21.00;;;;;;;-145.50;100.00;65435.88;4878605;29;20823;-47
2021/06/28 11:02:09;;;;;;;34.15;21.67;;;;;;;-145.50;100.00;65435.88;4850210;29;20048;-50
2021/06/28 11:04:57;;;;;;;31.25;22.27;;;;;;;-145.50;100.00;65435.88;4879292;29;20056;-48
2021/06/28 11:07:47;;;;;;;37.72;23.17;;;;;;;-145.50;100.00;65435.88;4882988;29;20151;-49
2021/06/28 11:10:37;;;;;;;35.67;23.33;;;;;;;-145.50;100.00;65435.88;4888274;29;20635;-51
2021/06/28 11:13:52;;;;;;;35.80;23.33;;;;;;;-145.50;100.00;65435.88;4881969;29;20065;-49
2021/06/28 11:17:05;;;;;;;36.20;22.80;;;;;;;-145.50;100.00;65435.88;4883742;29;20052;-48
2021/06/28 11:20:06;;;;;;;40.90;25.58;;;;;;;-145.50;100.00;65435.88;4882617;29;20088;-49